Time;durP1;ratioP1;P1;durP2;ratioP2;P2;SDS_P1;SDS_P2;PMS_P1;PMS_P2;Temp;Humidity;BMP_temperature;BMP_pressure;BME280_temperature;BME280_humidity;BME280_pressure;Samples;Min_cycle;Max_cycle;Signal;HPM_P1;HPM_P2
2023/10/06 00:00:47;;;;;;;12.70;12.30;;;;;;;-141.02;100.00;39951.78;5075587;28;20726;-59
2023/10/06 00:03:15;;;;;;;13.05;12.65;;;;;;;-141.02;100.00;39961.38;5075180;28;20223;-63
2023/10/06 00:05:46;;;;;;;13.05;12.65;;;;;;;-141.02;100.00;39976.72;5075104;28;20264;-64
2023/10/06 00:08:16;;;;;;;13.50;13.10;;;;;;;-141.02;100.00;39999.75;5075225;28;20186;-61
2023/10/06 00:10:46;;;;;;;13.32;12.93;;;;;;;-141.02;100.00;39980.56;5075621;28;20572;-60
2023/10/06 00:13:18;;;;;;;13.52;13.13;;;;;;;-141.02;100.00;39970.97;5075041;28;20565;-62
2023/10/06 00:15:49;;;;;;;13.85;13.35;;;;;;;-141.02;100.00;39999.75;5074943;28;20186;-63
2023/10/06 00:18:19;;;;;;;13.75;13.25;;;;;;;-141.02;100.00;39965.22;5075001;28;20237;-63
2023/10/06 00:20:50;;;;;;;13.35;12.95;;;;;;;-141.02;100.00;39967.13;5075501;28;20657;-63
2023/10/06 00:23:21;;;;;;;13.00;12.60;;;;;;;-141.02;100.00;39957.53;5075323;28;20242;-62
2023/10/06 00:25:51;;;;;;;13.00;12.60;;;;;;;-141.02;100.00;39967.13;5074841;28;20194;-63
2023/10/06 00:28:21;;;;;;;13.30;12.90;;;;;;;-141.02;100.00;39957.53;5075030;28;20187;-64
2023/10/06 00:30:55;;;;;;;12.52;12.13;;;;;;;-141.02;100.00;39949.88;5074957;28;20226;-62
2023/10/06 00:33:26;;;;;;;11.88;11.48;;;;;;;-141.02;100.00;39896.16;5074658;28;20191;-60
2023/10/06 00:35:54;;;;;;;11.23;10.93;;;;;;;-141.02;100.00;39585.44;5074920;28;20191;-65
2023/10/06 00:38:23;;;;;;;10.80;10.50;;;;;;;-141.02;100.00;39800.25;5074620;28;20313;-61
2023/10/06 00:40:55;;;;;;;11.07;10.77;;;;;;;-141.02;100.00;39777.25;5074873;28;20205;-60
2023/10/06 00:43:36;;;;;;;11.40;11.10;;;;;;;-141.02;100.00;39834.78;5074382;28;20684;-60
2023/10/06 00:46:07;;;;;;;11.65;11.25;;;;;;;-141.02;100.00;39853.97;5074557;28;20190;-61
2023/10/06 00:48:38;;;;;;;12.10;11.70;;;;;;;-141.02;100.00;39846.28;5074434;28;20222;-63
2023/10/06 00:51:06;;;;;;;12.95;12.55;;;;;;;-141.02;100.00;39857.81;5074805;28;20218;-60
2023/10/06 00:53:33;;;;;;;12.65;12.25;;;;;;;-141.02;100.00;39886.56;5074266;28;20194;-60
2023/10/06 00:56:10;;;;;;;13.05;12.65;;;;;;;-141.02;100.00;39911.50;5074531;28;20244;-59
2023/10/06 00:58:41;;;;;;;13.30;12.90;;;;;;;-141.02;100.00;39946.03;5074204;28;20659;-64
2023/10/06 01:01:12;;;;;;;13.35;12.95;;;;;;;-141.02;100.00;39967.13;5074292;28;20278;-62
2023/10/06 01:03:44;;;;;;;13.65;13.25;;;;;;;-141.02;100.00;39934.53;5074058;28;20221;-60
2023/10/06 01:06:14;;;;;;;13.90;13.40;;;;;;;-141.02;100.00;39957.53;5074345;28;20198;-61
2023/10/06 01:08:52;;;;;;;14.10;13.60;;;;;;;-141.02;100.00;39949.88;5074301;28;20194;-60
2023/10/06 01:11:20;;;;;;;13.95;13.45;;;;;;;-141.02;100.00;39953.72;5074368;28;20655;-61
2023/10/06 01:13:56;;;;;;;14.10;13.60;;;;;;;-141.02;100.00;39972.88;5073930;28;20651;-63
2023/10/06 01:17:14;;;;;;;13.57;13.07;;;;;;;-141.02;100.00;39930.69;5073909;28;20724;-62
2023/10/06 01:19:53;;;;;;;13.00;12.60;;;;;;;-141.02;100.00;39884.66;5074121;28;20197;-59
2023/10/06 01:22:28;;;;;;;13.00;12.60;;;;;;;-141.02;100.00;39892.34;5074107;28;20193;-58
2023/10/06 01:24:58;;;;;;;12.60;12.20;;;;;;;-141.02;100.00;39892.34;5073762;28;20722;-61
2023/10/06 01:27:26;;;;;;;11.90;11.50;;;;;;;-141.02;100.00;39850.13;5074219;28;20207;-60
2023/10/06 01:30:17;;;;;;;11.30;11.00;;;;;;;-141.02;100.00;39823.28;5073638;28;20551;-60
2023/10/06 01:32:45;;;;;;;11.40;11.10;;;;;;;-141.02;100.00;39830.94;5073594;28;20218;-60
2023/10/06 01:35:15;;;;;;;11.07;10.77;;;;;;;-141.02;100.00;39773.41;5073741;28;20198;-62
2023/10/06 01:37:44;;;;;;;11.93;11.52;;;;;;;-141.02;100.00;39819.44;5073393;28;20248;-60
2023/10/06 01:40:35;;;;;;;12.48;12.07;;;;;;;-141.02;100.00;39796.44;5073468;28;20206;-58
2023/10/06 01:43:09;;;;;;;12.40;12.00;;;;;;;-141.02;100.00;39777.25;5072859;28;20735;-62
2023/10/06 01:45:43;;;;;;;12.20;11.80;;;;;;;-141.02;100.00;39806.03;5073643;28;20188;-62
2023/10/06 01:48:22;;;;;;;12.20;11.80;;;;;;;-141.02;100.00;39765.75;5073248;28;20193;-62
2023/10/06 01:51:38;;;;;;;12.63;12.23;;;;;;;-141.02;100.00;39823.28;5073577;28;20273;-60
2023/10/06 01:54:11;;;;;;;13.30;12.90;;;;;;;-141.02;100.00;39823.28;5073719;28;20190;-61
2023/10/06 01:56:42;;;;;;;13.40;13.00;;;;;;;-141.02;100.00;39853.97;5073084;28;20222;-64
2023/10/06 01:59:10;;;;;;;13.60;13.10;;;;;;;-141.02;100.00;39855.88;5073659;28;20194;-64
2023/10/06 02:01:39;;;;;;;13.00;12.60;;;;;;;-141.02;100.00;39857.81;5072991;28;20200;-61
2023/10/06 02:04:10;;;;;;;13.15;12.75;;;;;;;-141.02;100.00;39861.66;5073248;28;20230;-65
2023/10/06 02:06:37;;;;;;;12.77;12.38;;;;;;;-141.02;100.00;39827.13;5072964;28;20194;-65
2023/10/06 02:09:05;;;;;;;13.23;12.82;;;;;;;-141.02;100.00;39830.94;5072826;28;20213;-63
2023/10/06 02:14:56;;;;;;;12.52;12.13;;;;;;;-141.02;100.00;39830.94;5072876;28;20221;-65
2023/10/06 02:17:23;;;;;;;13.10;12.70;;;;;;;-141.02;100.00;39811.78;5073002;28;20640;-65
2023/10/06 02:23:13;;;;;;;12.55;12.15;;;;;;;-141.02;100.00;39865.47;5072786;28;20181;-65
2023/10/06 02:25:40;;;;;;;12.65;12.25;;;;;;;-141.02;100.00;39823.28;5072562;28;20678;-65
2023/10/06 02:28:08;;;;;;;12.90;12.50;;;;;;;-141.02;100.00;39821.38;5072459;28;20199;-64
2023/10/06 02:30:39;;;;;;;12.60;12.20;;;;;;;-141.02;100.00;39815.59;5072527;28;20200;-66
2023/10/06 02:33:06;;;;;;;12.90;12.50;;;;;;;-141.02;100.00;39830.94;5072680;28;20199;-65
2023/10/06 02:35:35;;;;;;;12.90;12.50;;;;;;;-141.02;100.00;39861.66;5072361;28;20201;-64
2023/10/06 02:38:09;;;;;;;13.10;12.70;;;;;;;-141.02;100.00;39853.97;5061933;28;20229;-65
2023/10/06 02:40:44;;;;;;;11.60;11.30;;;;;;;-141.02;100.00;39815.59;5072352;28;20197;-64
2023/10/06 02:43:16;;;;;;;12.40;12.00;;;;;;;-141.02;100.00;39850.13;5072560;28;20187;-64
2023/10/06 02:45:45;;;;;;;12.00;11.60;;;;;;;-141.02;100.00;39855.88;5072314;28;20641;-64
2023/10/06 02:48:21;;;;;;;11.80;11.40;;;;;;;-141.02;100.00;39838.63;5072526;28;20553;-64
2023/10/06 02:50:55;;;;;;;11.80;11.40;;;;;;;-141.02;100.00;39804.09;5072510;28;20201;-64
2023/10/06 02:53:35;;;;;;;11.70;11.30;;;;;;;-141.02;100.00;39834.78;5071385;28;20233;-65
2023/10/06 02:56:07;;;;;;;11.10;10.80;;;;;;;-141.02;100.00;39790.69;5072511;28;20217;-65
2023/10/06 02:58:35;;;;;;;10.90;10.60;;;;;;;-141.02;100.00;39742.72;5072418;28;20187;-64
2023/10/06 03:01:04;;;;;;;10.80;10.50;;;;;;;-141.02;100.00;39746.56;5072047;28;20660;-65
2023/10/06 03:03:33;;;;;;;10.48;10.18;;;;;;;-141.02;100.00;39727.38;5072154;28;20229;-65
2023/10/06 03:06:07;;;;;;;10.15;9.85;;;;;;;-141.02;100.00;39727.38;5072590;28;20198;-65
2023/10/06 03:08:35;;;;;;;10.32;10.02;;;;;;;-141.02;100.00;39742.72;5072060;28;20273;-64
2023/10/06 03:11:03;;;;;;;10.38;10.07;;;;;;;-141.02;100.00;39738.88;5072251;28;20210;-64
2023/10/06 03:13:33;;;;;;;10.77;10.48;;;;;;;-141.02;100.00;39679.44;5072228;28;20251;-63
2023/10/06 03:16:01;;;;;;;10.80;10.50;;;;;;;-141.02;100.00;39704.38;5071850;28;20195;-65
2023/10/06 03:19:12;;;;;;;10.98;10.68;;;;;;;-141.02;100.00;39658.34;5072458;28;20194;-64
2023/10/06 03:21:45;;;;;;;10.35;10.05;;;;;;;-141.02;100.00;39619.97;5071819;28;20265;-64
2023/10/06 03:24:29;;;;;;;10.30;10.00;;;;;;;-141.02;100.00;39619.97;5072069;28;20767;-64
2023/10/06 03:27:12;;;;;;;10.40;10.10;;;;;;;-141.02;100.00;39324.63;5072122;28;20650;-65
2023/10/06 03:29:47;;;;;;;10.20;9.90;;;;;;;-141.02;100.00;39581.63;5071833;28;20195;-65
2023/10/06 03:32:27;;;;;;;10.35;10.05;;;;;;;-141.02;100.00;39579.69;5071782;28;20187;-63
2023/10/06 03:34:59;;;;;;;10.10;9.80;;;;;;;-141.02;100.00;39573.94;5071866;28;20242;-64
2023/10/06 03:37:37;;;;;;;10.10;9.80;;;;;;;-141.02;100.00;39566.28;5072127;28;20276;-64
2023/10/06 03:40:20;;;;;;;9.55;9.25;;;;;;;-141.02;100.00;39501.06;5071366;28;20312;-64
2023/10/06 03:42:48;;;;;;;9.23;8.93;;;;;;;-141.02;100.00;39424.34;5071702;28;20649;-64
2023/10/06 03:45:26;;;;;;;9.35;9.05;;;;;;;-141.02;100.00;39441.63;5071558;28;20269;-64
2023/10/06 03:48:08;;;;;;;9.57;9.27;;;;;;;-141.02;100.00;39424.34;5071669;28;20190;-64
2023/10/06 03:50:41;;;;;;;9.73;9.43;;;;;;;-141.02;100.00;39455.03;5071947;28;20218;-64
2023/10/06 03:53:11;;;;;;;9.90;9.60;;;;;;;-141.02;100.00;39428.19;5071928;28;20252;-64
2023/10/06 03:55:40;;;;;;;9.50;9.20;;;;;;;-141.02;100.00;39370.66;5071533;28;20202;-64
2023/10/06 03:58:10;;;;;;;9.30;9.00;;;;;;;-141.02;100.00;39370.66;5071826;28;20210;-64
2023/10/06 04:00:40;;;;;;;8.82;8.63;;;;;;;-141.02;100.00;39297.78;5071787;28;20203;-64
2023/10/06 04:03:13;;;;;;;8.40;8.20;;;;;;;-141.02;100.00;39163.53;5071827;28;20303;-65
2023/10/06 04:05:41;;;;;;;8.60;8.40;;;;;;;-141.02;100.00;39075.34;5073264;28;20226;-64
2023/10/06 04:08:14;;;;;;;7.55;7.35;;;;;;;-141.02;100.00;38967.94;5075151;28;20195;-58
2023/10/06 04:10:42;;;;;;;6.82;6.63;;;;;;;-141.02;100.00;38749.34;5075456;28;20252;-61
2023/10/06 04:13:10;;;;;;;7.10;6.90;;;;;;;-141.02;100.00;38699.50;5075094;28;20277;-63
2023/10/06 04:15:38;;;;;;;6.95;6.75;;;;;;;-141.02;100.00;38672.66;5075098;28;20205;-62
2023/10/06 04:18:10;;;;;;;6.80;6.60;;;;;;;-141.02;100.00;38657.31;5075245;28;20194;-63
2023/10/06 04:20:38;;;;;;;6.80;6.60;;;;;;;-141.02;100.00;38743.59;5074919;28;20274;-59
2023/10/06 04:23:05;;;;;;;6.00;5.90;;;;;;;-141.02;100.00;38927.69;5075147;28;20191;-61
2023/10/06 04:25:37;;;;;;;5.80;5.70;;;;;;;-141.02;100.00;39010.13;5075141;28;20284;-60
2023/10/06 04:28:09;;;;;;;5.82;5.72;;;;;;;-141.02;100.00;38801.13;5075050;28;20194;-64
2023/10/06 04:30:37;;;;;;;5.90;5.80;;;;;;;-141.02;100.00;39000.53;5074846;28;20191;-60
2023/10/06 04:33:05;;;;;;;6.35;6.25;;;;;;;-141.02;100.00;39036.97;5074626;28;20198;-59
2023/10/06 04:35:32;;;;;;;7.03;6.82;;;;;;;-141.02;100.00;39098.34;5074688;28;20680;-60
2023/10/06 04:38:00;;;;;;;8.00;7.80;;;;;;;-141.02;100.00;39244.09;5074635;28;20194;-64
2023/10/06 04:40:27;;;;;;;8.60;8.40;;;;;;;-141.02;100.00;39324.63;5074582;28;20226;-64
2023/10/06 04:42:56;;;;;;;8.88;8.68;;;;;;;-141.02;100.00;39489.56;5074528;28;20211;-60
2023/10/06 04:45:23;;;;;;;9.70;9.40;;;;;;;-141.02;100.00;39476.13;5074638;28;20236;-64
2023/10/06 04:47:51;;;;;;;9.95;9.65;;;;;;;-141.02;100.00;39504.91;5074614;28;20664;-62
2023/10/06 04:50:20;;;;;;;9.52;9.23;;;;;;;-141.02;100.00;39545.19;5074984;28;20194;-64
2023/10/06 04:52:47;;;;;;;9.52;9.23;;;;;;;-141.02;100.00;39589.28;5074719;28;20587;-61
2023/10/06 04:55:16;;;;;;;9.32;9.02;;;;;;;-141.02;100.00;39656.41;5074863;28;20194;-60
2023/10/06 04:57:44;;;;;;;8.90;8.70;;;;;;;-141.02;100.00;39662.16;5074531;28;20277;-62
2023/10/06 05:00:15;;;;;;;9.65;9.35;;;;;;;-141.02;100.00;39673.69;5074430;28;20279;-64
2023/10/06 05:02:44;;;;;;;10.07;9.77;;;;;;;-141.02;100.00;39689.03;5074921;28;20241;-65
2023/10/06 05:05:12;;;;;;;9.75;9.45;;;;;;;-141.02;100.00;39715.88;5074016;28;20703;-63
2023/10/06 05:07:39;;;;;;;10.80;10.50;;;;;;;-141.02;100.00;39823.28;5074148;28;20203;-59
2023/10/06 05:10:10;;;;;;;10.35;10.05;;;;;;;-141.02;100.00;39784.91;5074349;28;20225;-63
2023/10/06 05:12:38;;;;;;;9.90;9.60;;;;;;;-141.02;100.00;39779.16;5074251;28;20190;-62
2023/10/06 05:15:09;;;;;;;10.00;9.70;;;;;;;-141.02;100.00;39840.53;5073951;28;20205;-64
2023/10/06 05:17:38;;;;;;;9.98;9.68;;;;;;;-141.02;100.00;39875.06;5073025;28;20594;-59
2023/10/06 05:20:05;;;;;;;11.10;10.80;;;;;;;-141.02;100.00;39865.47;5073788;28;20634;-65
2023/10/06 05:22:32;;;;;;;11.10;10.80;;;;;;;-141.02;100.00;39869.31;5074123;28;20556;-64
2023/10/06 05:25:01;;;;;;;10.98;10.68;;;;;;;-141.02;100.00;39917.25;5073911;28;20225;-64
2023/10/06 05:27:28;;;;;;;11.32;11.02;;;;;;;-141.02;100.00;39959.47;5073700;28;20660;-60
2023/10/06 05:29:56;;;;;;;11.27;10.98;;;;;;;-141.02;100.00;39967.13;5073923;28;20191;-64
2023/10/06 05:32:24;;;;;;;11.73;11.32;;;;;;;-141.02;100.00;40007.41;5073644;28;20205;-62
2023/10/06 05:34:52;;;;;;;11.70;11.30;;;;;;;-141.02;100.00;40049.63;5073879;28;20198;-64
2023/10/06 05:37:19;;;;;;;12.30;11.90;;;;;;;-141.02;100.00;40041.94;5073452;28;20229;-63
2023/10/06 05:39:48;;;;;;;12.20;11.80;;;;;;;-141.02;100.00;40072.63;5073126;28;20712;-64
2023/10/06 05:42:16;;;;;;;12.40;12.00;;;;;;;-141.02;100.00;40105.25;5073357;28;20622;-63
2023/10/06 05:44:43;;;;;;;12.68;12.27;;;;;;;-141.02;100.00;40112.91;5073278;28;20743;-64
2023/10/06 05:47:10;;;;;;;12.48;12.07;;;;;;;-141.02;100.00;40122.50;5073608;28;20194;-63
2023/10/06 05:49:38;;;;;;;12.63;12.23;;;;;;;-141.02;100.00;40166.63;5073596;28;20542;-63
2023/10/06 05:52:10;;;;;;;12.57;12.18;;;;;;;-141.02;100.00;40212.66;5073145;28;20281;-62
2023/10/06 05:54:38;;;;;;;13.38;12.98;;;;;;;-141.02;100.00;40229.94;5073108;28;20657;-63
2023/10/06 05:57:05;;;;;;;13.93;13.43;;;;;;;-141.02;100.00;40231.84;5073087;28;20285;-64
2023/10/06 05:59:36;;;;;;;14.50;14.00;;;;;;;-141.02;100.00;40243.34;5073283;28;20692;-63
2023/10/06 06:02:04;;;;;;;14.43;13.93;;;;;;;-141.02;100.00;40283.63;5073091;28;20199;-61
2023/10/06 06:04:34;;;;;;;14.10;13.60;;;;;;;-141.02;100.00;40387.22;5072754;28;20222;-63
2023/10/06 06:07:02;;;;;;;14.55;14.05;;;;;;;-141.02;100.00;40333.50;5072834;28;20631;-60
2023/10/06 06:09:33;;;;;;;14.32;13.82;;;;;;;-141.02;100.00;40352.69;5073168;28;20209;-65
2023/10/06 06:12:00;;;;;;;14.60;14.00;;;;;;;-141.02;100.00;40381.47;5073165;28;20191;-63
2023/10/06 06:14:27;;;;;;;14.90;14.30;;;;;;;-141.02;100.00;40421.75;5073094;28;20230;-65
2023/10/06 06:16:55;;;;;;;15.60;15.00;;;;;;;-141.02;100.00;40460.13;5072619;28;20245;-65
2023/10/06 06:19:22;;;;;;;15.55;14.95;;;;;;;-141.02;100.00;40481.22;5073203;28;20198;-63
2023/10/06 06:21:51;;;;;;;16.27;15.57;;;;;;;-141.02;100.00;40529.19;5072877;28;20198;-63
2023/10/06 06:24:22;;;;;;;16.13;15.43;;;;;;;-141.02;100.00;40556.03;5072843;28;20579;-65
2023/10/06 06:26:51;;;;;;;15.95;15.25;;;;;;;-141.02;100.00;40563.72;5072825;28;20259;-64
2023/10/06 06:29:19;;;;;;;15.88;15.18;;;;;;;-141.02;100.00;40588.66;5072977;28;20224;-65
2023/10/06 06:31:46;;;;;;;15.70;15.00;;;;;;;-141.02;100.00;40625.13;5072743;28;20230;-63
2023/10/06 06:34:16;;;;;;;15.85;15.15;;;;;;;-141.02;100.00;40632.78;5072933;28;20233;-63
2023/10/06 06:36:45;;;;;;;16.33;15.63;;;;;;;-141.02;100.00;40667.31;5072371;28;20790;-64
2023/10/06 06:39:12;;;;;;;16.70;15.90;;;;;;;-141.02;100.00;40690.34;5071859;28;20325;-64
2023/10/06 06:41:39;;;;;;;16.85;16.05;;;;;;;-141.02;99.02;40696.09;5072686;28;20194;-64
2023/10/06 06:44:08;;;;;;;16.50;15.80;;;;;;;-141.02;99.00;40705.69;5073120;28;20286;-63
2023/10/06 06:46:35;;;;;;;16.52;15.82;;;;;;;-141.02;97.45;40767.09;5072392;28;20222;-64
2023/10/06 06:49:02;;;;;;;16.63;15.93;;;;;;;-141.02;96.78;40774.75;5072546;28;20640;-62
2023/10/06 06:51:30;;;;;;;16.98;16.17;;;;;;;-141.02;96.28;40790.09;5072427;28;20277;-62
2023/10/06 06:53:57;;;;;;;17.20;16.40;;;;;;;-141.02;95.88;40818.88;5072496;28;20274;-64
2023/10/06 06:56:28;;;;;;;17.38;16.58;;;;;;;-141.02;96.09;40828.47;5072182;28;20230;-65
2023/10/06 06:58:56;;;;;;;17.73;16.92;;;;;;;-141.02;93.39;40874.53;5072100;28;20265;-65
2023/10/06 07:01:25;;;;;;;17.05;16.25;;;;;;;-141.02;92.99;40909.06;5072376;28;20194;-65
2023/10/06 07:03:52;;;;;;;17.55;16.75;;;;;;;-141.02;93.34;40912.91;5072057;28;20194;-64
2023/10/06 07:06:21;;;;;;;17.35;16.55;;;;;;;-141.02;91.36;40924.41;5072264;28;20276;-64
2023/10/06 07:08:49;;;;;;;17.73;16.83;;;;;;;-141.02;89.86;40943.59;5072281;28;20621;-63
2023/10/06 07:11:17;;;;;;;17.35;16.55;;;;;;;-141.02;89.38;40951.28;5072339;28;20255;-64
2023/10/06 07:13:45;;;;;;;17.13;16.33;;;;;;;-141.02;88.66;41018.44;5072431;28;20201;-64
2023/10/06 07:16:12;;;;;;;17.60;16.80;;;;;;;-141.02;88.08;41016.50;5071980;28;20263;-66
2023/10/06 07:18:43;;;;;;;17.55;16.75;;;;;;;-141.02;84.51;41039.53;5072246;28;20194;-65
2023/10/06 07:21:11;;;;;;;17.85;16.95;;;;;;;-141.02;83.11;41074.06;5072408;28;20702;-63
2023/10/06 07:23:38;;;;;;;17.92;17.02;;;;;;;-141.02;81.88;41087.50;5071900;28;20226;-65
2023/10/06 07:26:12;;;;;;;18.45;17.55;;;;;;;-141.02;81.41;41154.66;5071704;28;20595;-60
2023/10/06 07:28:39;;;;;;;18.17;17.27;;;;;;;-141.02;83.80;41196.88;5072120;28;20557;-64
2023/10/06 07:31:11;;;;;;;17.90;17.08;;;;;;;-141.02;81.06;41166.16;5071743;28;20204;-64
2023/10/06 07:33:39;;;;;;;18.70;17.80;;;;;;;-141.02;81.18;41183.44;5072056;28;20200;-65
2023/10/06 07:36:16;;;;;;;18.42;17.52;;;;;;;-141.02;80.42;41216.06;5071709;28;20220;-62
2023/10/06 07:38:43;;;;;;;18.27;17.38;;;;;;;-141.02;80.22;41187.28;5071568;28;20284;-64
2023/10/06 07:41:18;;;;;;;17.65;16.75;;;;;;;-141.02;81.29;41193.03;5074889;28;20222;-66
2023/10/06 07:43:48;;;;;;;17.90;17.00;;;;;;;-141.02;81.33;41193.03;5076043;28;20269;-65
2023/10/06 07:46:16;;;;;;;17.88;16.98;;;;;;;-141.02;80.22;41235.25;5075511;28;20706;-65
2023/10/06 07:48:44;;;;;;;17.42;16.63;;;;;;;-141.02;81.44;41185.34;5075565;28;20244;-63
2023/10/06 07:51:14;;;;;;;17.30;16.50;;;;;;;-141.02;79.74;41208.38;5075542;28;20328;-65
2023/10/06 07:53:43;;;;;;;17.58;16.77;;;;;;;-141.02;79.01;41214.13;5075513;28;20199;-64
2023/10/06 07:56:11;;;;;;;17.60;16.77;;;;;;;-141.02;79.01;41235.25;5075460;28;20198;-65
2023/10/06 07:58:41;;;;;;;17.45;16.65;;;;;;;-141.02;78.68;41312.00;5075321;28;20679;-65
2023/10/06 08:01:09;;;;;;;17.17;16.38;;;;;;;-141.02;77.50;41312.00;5075396;28;20661;-63
2023/10/06 08:03:37;;;;;;;17.08;16.27;;;;;;;-141.02;79.35;41338.88;5075193;28;20312;-67
2023/10/06 08:06:05;;;;;;;16.77;15.98;;;;;;;-141.02;79.04;41383.00;5075094;28;20226;-65
2023/10/06 08:08:34;;;;;;;16.58;15.88;;;;;;;-141.02;78.46;41400.28;5075478;28;20194;-64
2023/10/06 08:11:02;;;;;;;17.00;16.20;;;;;;;-141.02;76.39;41398.34;5075154;28;20195;-65
2023/10/06 08:13:31;;;;;;;17.25;16.45;;;;;;;-141.02;75.96;41400.28;5075439;28;20195;-65
2023/10/06 08:15:58;;;;;;;17.10;16.30;;;;;;;-141.02;72.80;41423.28;5075020;28;20735;-65
2023/10/06 08:18:28;;;;;;;17.25;16.45;;;;;;;-141.02;72.10;41457.84;5074985;28;20195;-65
2023/10/06 08:20:56;;;;;;;17.20;16.40;;;;;;;-141.02;69.82;41526.91;5075312;28;20230;-64
2023/10/06 08:23:25;;;;;;;17.35;16.55;;;;;;;-141.02;71.03;41563.38;5075209;28;20199;-65
2023/10/06 08:25:56;;;;;;;17.30;16.50;;;;;;;-141.02;69.81;41530.75;5074779;28;20230;-58
2023/10/06 08:28:24;;;;;;;17.60;16.75;;;;;;;-141.02;69.82;41526.91;5075371;28;20256;-58
2023/10/06 08:30:51;;;;;;;17.17;16.38;;;;;;;-141.02;69.00;41553.78;5074797;28;20195;-63
2023/10/06 08:33:19;;;;;;;17.48;16.67;;;;;;;-141.02;68.21;41578.75;5075486;28;20565;-64
2023/10/06 08:35:46;;;;;;;17.05;16.25;;;;;;;-141.02;68.45;41574.91;5075081;28;20198;-65
2023/10/06 08:38:14;;;;;;;21.13;20.33;;;;;;;-141.02;66.64;41603.69;5074576;28;20255;-61
2023/10/06 08:40:43;;;;;;;25.13;23.73;;;;;;;-141.02;65.89;41611.34;5074509;28;20261;-58
2023/10/06 08:43:19;;;;;;;20.10;18.90;;;;;;;-141.02;63.27;41655.50;5074536;28;20285;-64
2023/10/06 08:45:46;;;;;;;16.60;15.90;;;;;;;-141.02;64.24;41649.75;5074772;28;20249;-63
2023/10/06 08:48:16;;;;;;;20.30;19.10;;;;;;;-141.02;66.42;41699.63;5074464;28;20286;-63
2023/10/06 08:50:45;;;;;;;18.52;17.73;;;;;;;-141.02;67.32;41665.09;5074280;28;20202;-63
2023/10/06 08:53:13;;;;;;;21.50;20.50;;;;;;;-141.02;68.20;41663.19;5073768;28;20298;-65
2023/10/06 08:55:44;;;;;;;18.02;17.33;;;;;;;-141.02;68.82;41688.13;5074537;28;20199;-65
2023/10/06 08:58:14;;;;;;;16.60;15.90;;;;;;;-141.02;69.32;41665.09;5074327;28;20197;-65
2023/10/06 09:00:43;;;;;;;16.27;15.57;;;;;;;-141.02;69.41;41670.84;5074544;28;20183;-65
2023/10/06 09:03:14;;;;;;;16.65;15.95;;;;;;;-141.02;69.06;41701.56;5074580;28;20198;-67
2023/10/06 09:05:43;;;;;;;17.05;16.25;;;;;;;-141.02;69.14;41691.97;5074103;28;20232;-63
2023/10/06 09:08:12;;;;;;;16.67;15.98;;;;;;;-141.02;69.03;41757.22;5074116;28;20203;-65
2023/10/06 09:10:41;;;;;;;16.85;16.15;;;;;;;-141.02;69.32;41711.16;5074244;28;20668;-65
2023/10/06 09:13:16;;;;;;;16.98;16.27;;;;;;;-141.02;69.43;41718.81;5074651;28;20271;-63
2023/10/06 09:16:02;;;;;;;16.77;16.08;;;;;;;-141.02;68.80;41565.31;5074010;28;20194;-62
2023/10/06 09:18:34;;;;;;;16.83;16.13;;;;;;;-141.02;68.56;41715.00;5074273;28;20198;-65
2023/10/06 09:21:13;;;;;;;16.92;16.13;;;;;;;-141.02;67.27;41734.19;5074183;28;20210;-65
2023/10/06 09:23:40;;;;;;;16.35;15.65;;;;;;;-141.02;68.16;41730.34;5074198;28;20186;-65
2023/10/06 09:26:09;;;;;;;16.67;15.98;;;;;;;-141.02;67.77;41711.16;5073651;28;20229;-65
2023/10/06 09:28:50;;;;;;;17.00;16.20;;;;;;;-141.02;68.89;41745.69;5073688;28;20234;-66
2023/10/06 09:31:33;;;;;;;16.85;16.05;;;;;;;-141.02;69.33;41793.69;5074374;28;20605;-63
2023/10/06 09:34:00;;;;;;;16.38;15.68;;;;;;;-141.02;70.97;41801.34;5073615;28;20668;-64
2023/10/06 09:36:33;;;;;;;16.88;16.08;;;;;;;-141.02;69.67;41787.91;5073893;28;20256;-60
2023/10/06 09:39:01;;;;;;;16.52;15.82;;;;;;;-141.02;70.54;41837.81;5073324;28;20241;-67
2023/10/06 09:41:30;;;;;;;16.70;16.00;;;;;;;-141.02;69.49;41818.63;5073498;28;20183;-66
2023/10/06 09:44:04;;;;;;;16.55;15.85;;;;;;;-141.02;70.14;41839.72;5073366;28;20205;-65
2023/10/06 09:46:34;;;;;;;16.85;16.05;;;;;;;-141.02;69.58;41828.22;5073306;28;20263;-65
2023/10/06 09:49:05;;;;;;;16.30;15.60;;;;;;;-141.02;68.50;41824.38;5073392;28;20186;-65
2023/10/06 09:51:36;;;;;;;17.00;16.20;;;;;;;-141.02;67.84;41822.47;5073429;28;20183;-66
2023/10/06 09:54:04;;;;;;;17.13;16.35;;;;;;;-141.02;65.78;41749.53;5073279;28;20199;-66
2023/10/06 09:56:33;;;;;;;16.83;16.13;;;;;;;-141.02;65.55;41818.63;5073392;28;20197;-66
2023/10/06 09:59:01;;;;;;;16.55;15.85;;;;;;;-141.02;65.68;41776.41;5073050;28;20198;-65
2023/10/06 10:01:30;;;;;;;16.80;16.10;;;;;;;-141.02;63.85;41787.91;5073327;28;20195;-63
2023/10/06 10:03:59;;;;;;;16.88;16.17;;;;;;;-141.02;64.65;41822.47;5073174;28;20194;-61
2023/10/06 10:06:28;;;;;;;17.15;16.35;;;;;;;-141.02;63.69;41789.84;5073194;28;20226;-61
2023/10/06 10:08:55;;;;;;;17.48;16.67;;;;;;;-141.02;59.43;41803.28;5073148;28;20272;-63
2023/10/06 10:11:30;;;;;;;17.48;16.67;;;;;;;-141.02;61.08;41860.84;5073464;28;20194;-63
2023/10/06 10:14:15;;;;;;;17.05;16.35;;;;;;;-141.02;64.41;41880.03;5072838;28;20277;-61
2023/10/06 10:17:06;;;;;;;16.75;16.05;;;;;;;-141.02;64.50;41901.16;5072812;28;20641;-65
2023/10/06 10:19:36;;;;;;;17.08;16.38;;;;;;;-141.02;66.92;41954.88;5073060;28;20217;-59
2023/10/06 10:22:05;;;;;;;17.98;17.17;;;;;;;-141.02;67.06;41945.28;5072913;28;20277;-62
2023/10/06 10:24:36;;;;;;;17.23;16.42;;;;;;;-141.02;66.77;41954.88;5072619;28;20660;-63
2023/10/06 10:27:12;;;;;;;17.13;16.35;;;;;;;-141.02;67.03;41956.81;5072765;28;20237;-60
2023/10/06 10:29:41;;;;;;;17.23;16.42;;;;;;;-141.02;68.04;41979.84;5072926;28;20190;-60
2023/10/06 10:32:15;;;;;;;17.08;16.27;;;;;;;-141.02;67.74;41960.66;5072724;28;20194;-62
2023/10/06 10:35:08;;;;;;;16.80;16.10;;;;;;;-141.02;68.00;41952.97;5072749;28;20228;-65
2023/10/06 10:37:55;;;;;;;17.08;16.33;;;;;;;-141.02;67.90;41964.47;5064043;28;20198;-61
2023/10/06 10:40:25;;;;;;;16.73;16.02;;;;;;;-141.02;68.03;41968.31;5072340;28;20307;-62
2023/10/06 10:43:03;;;;;;;16.83;16.13;;;;;;;-141.02;67.52;41976.00;5072360;28;20195;-65
2023/10/06 10:45:34;;;;;;;16.88;16.08;;;;;;;-141.02;67.73;41880.03;5072291;28;20244;-63
2023/10/06 10:48:04;;;;;;;17.95;17.02;;;;;;;-141.02;68.00;42027.81;5072622;28;20581;-64
2023/10/06 10:50:58;;;;;;;17.20;16.40;;;;;;;-141.02;67.74;41964.47;5072730;28;20224;-62
2023/10/06 10:53:29;;;;;;;16.77;15.98;;;;;;;-141.02;66.19;41976.00;5072407;28;20190;-62
2023/10/06 10:55:57;;;;;;;17.20;16.40;;;;;;;-141.02;65.47;41991.34;5072472;28;20221;-62
2023/10/06 10:58:58;;;;;;;16.88;16.08;;;;;;;-141.02;65.34;41979.84;5072034;28;20628;-59
2023/10/06 11:01:29;;;;;;;17.00;16.20;;;;;;;-141.02;65.17;41993.28;5072398;28;20198;-62
2023/10/06 11:04:34;;;;;;;16.65;15.95;;;;;;;-141.02;64.33;41995.19;5072208;28;20224;-61
2023/10/06 11:07:11;;;;;;;16.90;16.10;;;;;;;-141.02;64.13;42025.91;5072369;28;20293;-64
2023/10/06 11:09:48;;;;;;;18.10;17.20;;;;;;;-141.02;64.26;41985.59;5072514;28;20189;-62
2023/10/06 11:12:24;;;;;;;17.25;16.45;;;;;;;-141.02;64.08;42002.88;5072468;28;20191;-59
2023/10/06 11:14:55;;;;;;;16.77;15.98;;;;;;;-141.02;64.45;42010.53;5071122;28;20201;-61
2023/10/06 11:17:24;;;;;;;17.02;16.23;;;;;;;-141.02;63.75;42025.91;5072373;28;20190;-60
2023/10/06 11:20:01;;;;;;;17.27;16.48;;;;;;;-141.02;63.62;41991.34;5071891;28;20194;-64
2023/10/06 11:22:32;;;;;;;17.10;16.30;;;;;;;-141.02;63.29;41991.34;5072267;28;20209;-63
2023/10/06 11:25:03;;;;;;;16.95;16.15;;;;;;;-141.02;62.78;42006.72;5072269;28;20234;-60